Rumpus Ridge, South Dakota
Current Conditions -  °F | °C
As of 3:56 AM on Wednesday 26 Nov 2014 (Local Time) from KFSD Reporting Station
Light Snow Light Snow  
Wind Chill: -5°   Ceiling: 1200
Heat Index: -1°   Visibility: 1.2mi
Dew Point: -2°   Wind: 7mph
Humidity: 92%   Direction: 30°NNE
Pressure: 29.87"   Gusts: NA
Location:  43.5855°N, 97.3085°W
Report Text: KFSD 260956Z AUTO 03006KT 1 1/4SM -SN BR SCT007 OVC012 M01/M02 A2987 RMK AO2 SLP129 P0001 T10111022
Loading
Personal Weather Stations






























Interactive Weather Map New forecast layout! Learn more

10-Day Weather Forecast

Advertisements
Track Severe Weather on mobile